sensor_id;sensor_type;location;lat;lon;timestamp;P1;durP1;ratioP1;P2;durP2;ratioP2
30048;SDS011;16879;50.852;15.602;2023-09-07T00:00:46;5.78;;;4.47;;
30048;SDS011;16879;50.852;15.602;2023-09-07T00:03:15;5.50;;;4.22;;
30048;SDS011;16879;50.852;15.602;2023-09-07T00:05:41;5.63;;;4.80;;
30048;SDS011;16879;50.852;15.602;2023-09-07T00:08:07;4.68;;;4.25;;
30048;SDS011;16879;50.852;15.602;2023-09-07T00:10:33;5.07;;;3.95;;
30048;SDS011;16879;50.852;15.602;2023-09-07T00:13:02;5.88;;;4.68;;
30048;SDS011;16879;50.852;15.602;2023-09-07T00:15:28;6.25;;;4.60;;
30048;SDS011;16879;50.852;15.602;2023-09-07T00:17:55;7.45;;;4.28;;
30048;SDS011;16879;50.852;15.602;2023-09-07T00:20:22;5.22;;;4.50;;
30048;SDS011;16879;50.852;15.602;2023-09-07T00:22:49;8.00;;;5.05;;
30048;SDS011;16879;50.852;15.602;2023-09-07T00:25:15;7.57;;;4.72;;
30048;SDS011;16879;50.852;15.602;2023-09-07T00:27:41;7.30;;;4.53;;
30048;SDS011;16879;50.852;15.602;2023-09-07T00:30:07;4.85;;;4.35;;
30048;SDS011;16879;50.852;15.602;2023-09-07T00:32:36;4.55;;;4.15;;
30048;SDS011;16879;50.852;15.602;2023-09-07T00:35:03;5.22;;;4.30;;
30048;SDS011;16879;50.852;15.602;2023-09-07T00:37:29;5.50;;;3.70;;
30048;SDS011;16879;50.852;15.602;2023-09-07T00:39:55;5.53;;;3.60;;
30048;SDS011;16879;50.852;15.602;2023-09-07T00:42:21;6.78;;;4.47;;
30048;SDS011;16879;50.852;15.602;2023-09-07T00:44:47;6.30;;;4.45;;
30048;SDS011;16879;50.852;15.602;2023-09-07T00:47:13;5.53;;;4.05;;
30048;SDS011;16879;50.852;15.602;2023-09-07T00:49:40;5.68;;;4.18;;
30048;SDS011;16879;50.852;15.602;2023-09-07T00:52:06;4.45;;;3.50;;
30048;SDS011;16879;50.852;15.602;2023-09-07T00:54:35;9.77;;;4.05;;
30048;SDS011;16879;50.852;15.602;2023-09-07T00:57:04;4.35;;;3.88;;
30048;SDS011;16879;50.852;15.602;2023-09-07T00:59:30;4.70;;;3.80;;
30048;SDS011;16879;50.852;15.602;2023-09-07T01:01:57;9.57;;;4.35;;
30048;SDS011;16879;50.852;15.602;2023-09-07T01:04:24;4.65;;;3.78;;
30048;SDS011;16879;50.852;15.602;2023-09-07T01:06:56;4.78;;;4.30;;
30048;SDS011;16879;50.852;15.602;2023-09-07T01:09:32;6.15;;;3.97;;
30048;SDS011;16879;50.852;15.602;2023-09-07T01:12:02;9.40;;;4.22;;
30048;SDS011;16879;50.852;15.602;2023-09-07T01:14:28;5.25;;;4.15;;
30048;SDS011;16879;50.852;15.602;2023-09-07T01:16:54;4.50;;;4.10;;
30048;SDS011;16879;50.852;15.602;2023-09-07T01:19:20;3.40;;;3.10;;
30048;SDS011;16879;50.852;15.602;2023-09-07T01:21:46;5.00;;;3.70;;
30048;SDS011;16879;50.852;15.602;2023-09-07T01:24:13;5.88;;;3.83;;
30048;SDS011;16879;50.852;15.602;2023-09-07T01:26:40;7.03;;;3.92;;
30048;SDS011;16879;50.852;15.602;2023-09-07T01:29:07;3.55;;;3.25;;
30048;SDS011;16879;50.852;15.602;2023-09-07T01:31:37;3.85;;;3.45;;
30048;SDS011;16879;50.852;15.602;2023-09-07T01:34:04;4.53;;;3.25;;
30048;SDS011;16879;50.852;15.602;2023-09-07T01:36:30;4.13;;;3.72;;
30048;SDS011;16879;50.852;15.602;2023-09-07T01:38:56;4.38;;;3.17;;
30048;SDS011;16879;50.852;15.602;2023-09-07T01:41:22;5.68;;;3.10;;
30048;SDS011;16879;50.852;15.602;2023-09-07T01:43:48;8.18;;;3.42;;
30048;SDS011;16879;50.852;15.602;2023-09-07T01:46:14;4.22;;;3.33;;
30048;SDS011;16879;50.852;15.602;2023-09-07T01:48:40;5.97;;;3.38;;
30048;SDS011;16879;50.852;15.602;2023-09-07T01:51:07;5.20;;;3.03;;
30048;SDS011;16879;50.852;15.602;2023-09-07T01:53:33;3.92;;;3.53;;
30048;SDS011;16879;50.852;15.602;2023-09-07T01:55:59;3.38;;;2.88;;
30048;SDS011;16879;50.852;15.602;2023-09-07T01:58:25;4.40;;;3.22;;
30048;SDS011;16879;50.852;15.602;2023-09-07T02:00:57;5.45;;;3.00;;
30048;SDS011;16879;50.852;15.602;2023-09-07T02:03:24;3.40;;;3.10;;
30048;SDS011;16879;50.852;15.602;2023-09-07T02:05:50;3.67;;;3.30;;
30048;SDS011;16879;50.852;15.602;2023-09-07T02:08:16;5.18;;;3.05;;
30048;SDS011;16879;50.852;15.602;2023-09-07T02:10:42;3.53;;;3.22;;
30048;SDS011;16879;50.852;15.602;2023-09-07T02:13:08;4.75;;;3.67;;
30048;SDS011;16879;50.852;15.602;2023-09-07T02:15:37;2.97;;;2.67;;
30048;SDS011;16879;50.852;15.602;2023-09-07T02:18:04;4.35;;;2.80;;
30048;SDS011;16879;50.852;15.602;2023-09-07T02:20:33;4.70;;;3.33;;
30048;SDS011;16879;50.852;15.602;2023-09-07T02:23:00;3.30;;;2.88;;
30048;SDS011;16879;50.852;15.602;2023-09-07T02:25:27;5.45;;;3.55;;
30048;SDS011;16879;50.852;15.602;2023-09-07T02:27:55;3.05;;;2.78;;
30048;SDS011;16879;50.852;15.602;2023-09-07T02:30:21;4.55;;;2.95;;
30048;SDS011;16879;50.852;15.602;2023-09-07T02:32:46;4.90;;;3.08;;
30048;SDS011;16879;50.852;15.602;2023-09-07T02:35:12;6.43;;;3.22;;
30048;SDS011;16879;50.852;15.602;2023-09-07T02:37:38;5.07;;;2.83;;
30048;SDS011;16879;50.852;15.602;2023-09-07T02:40:04;3.45;;;2.50;;
30048;SDS011;16879;50.852;15.602;2023-09-07T02:42:33;4.13;;;3.00;;
30048;SDS011;16879;50.852;15.602;2023-09-07T02:44:59;3.70;;;3.35;;
30048;SDS011;16879;50.852;15.602;2023-09-07T02:47:26;5.18;;;3.00;;
30048;SDS011;16879;50.852;15.602;2023-09-07T02:49:52;6.07;;;3.10;;
30048;SDS011;16879;50.852;15.602;2023-09-07T02:52:18;4.78;;;3.22;;
30048;SDS011;16879;50.852;15.602;2023-09-07T02:54:44;4.72;;;3.22;;
30048;SDS011;16879;50.852;15.602;2023-09-07T02:57:10;4.80;;;3.33;;
30048;SDS011;16879;50.852;15.602;2023-09-07T02:59:37;4.00;;;3.60;;
30048;SDS011;16879;50.852;15.602;2023-09-07T03:02:03;4.80;;;3.17;;
30048;SDS011;16879;50.852;15.602;2023-09-07T03:04:29;3.10;;;2.70;;
30048;SDS011;16879;50.852;15.602;2023-09-07T03:06:55;4.25;;;3.30;;
30048;SDS011;16879;50.852;15.602;2023-09-07T03:09:21;2.92;;;2.70;;
30048;SDS011;16879;50.852;15.602;2023-09-07T03:11:47;4.05;;;2.38;;
30048;SDS011;16879;50.852;15.602;2023-09-07T03:14:13;4.20;;;3.40;;
30048;SDS011;16879;50.852;15.602;2023-09-07T03:16:39;4.95;;;3.00;;
30048;SDS011;16879;50.852;15.602;2023-09-07T03:19:05;2.97;;;2.30;;
30048;SDS011;16879;50.852;15.602;2023-09-07T03:21:32;4.35;;;2.78;;
30048;SDS011;16879;50.852;15.602;2023-09-07T03:23:58;3.08;;;2.80;;
30048;SDS011;16879;50.852;15.602;2023-09-07T03:26:24;3.00;;;2.35;;
30048;SDS011;16879;50.852;15.602;2023-09-07T03:28:50;3.05;;;2.22;;
30048;SDS011;16879;50.852;15.602;2023-09-07T03:31:17;4.75;;;3.45;;
30048;SDS011;16879;50.852;15.602;2023-09-07T03:33:43;4.85;;;3.13;;
30048;SDS011;16879;50.852;15.602;2023-09-07T03:36:09;2.67;;;2.47;;
30048;SDS011;16879;50.852;15.602;2023-09-07T03:38:35;3.35;;;2.72;;
30048;SDS011;16879;50.852;15.602;2023-09-07T03:41:02;4.70;;;3.13;;
30048;SDS011;16879;50.852;15.602;2023-09-07T03:43:28;3.38;;;3.08;;
30048;SDS011;16879;50.852;15.602;2023-09-07T03:45:54;2.72;;;2.28;;
30048;SDS011;16879;50.852;15.602;2023-09-07T03:48:20;4.28;;;2.88;;
30048;SDS011;16879;50.852;15.602;2023-09-07T03:50:46;4.35;;;3.03;;
30048;SDS011;16879;50.852;15.602;2023-09-07T03:53:12;3.58;;;3.15;;
30048;SDS011;16879;50.852;15.602;2023-09-07T03:55:41;7.10;;;3.40;;
30048;SDS011;16879;50.852;15.602;2023-09-07T03:58:11;4.45;;;4.05;;
30048;SDS011;16879;50.852;15.602;2023-09-07T04:00:40;4.40;;;3.50;;
30048;SDS011;16879;50.852;15.602;2023-09-07T04:03:09;3.08;;;2.78;;
30048;SDS011;16879;50.852;15.602;2023-09-07T04:05:38;4.30;;;3.35;;
30048;SDS011;16879;50.852;15.602;2023-09-07T04:08:04;4.15;;;3.70;;
30048;SDS011;16879;50.852;15.602;2023-09-07T04:10:31;4.85;;;3.60;;
30048;SDS011;16879;50.852;15.602;2023-09-07T04:12:57;3.17;;;2.63;;
30048;SDS011;16879;50.852;15.602;2023-09-07T04:15:23;3.25;;;2.80;;
30048;SDS011;16879;50.852;15.602;2023-09-07T04:17:50;5.10;;;4.07;;
30048;SDS011;16879;50.852;15.602;2023-09-07T04:20:16;3.28;;;2.80;;
30048;SDS011;16879;50.852;15.602;2023-09-07T04:22:42;6.72;;;2.97;;
30048;SDS011;16879;50.852;15.602;2023-09-07T04:25:08;5.20;;;2.85;;
30048;SDS011;16879;50.852;15.602;2023-09-07T04:27:34;4.80;;;3.65;;
30048;SDS011;16879;50.852;15.602;2023-09-07T04:30:00;4.35;;;2.75;;
30048;SDS011;16879;50.852;15.602;2023-09-07T04:32:26;3.40;;;2.83;;
30048;SDS011;16879;50.852;15.602;2023-09-07T04:34:53;4.10;;;3.20;;
30048;SDS011;16879;50.852;15.602;2023-09-07T04:37:20;4.03;;;3.08;;
30048;SDS011;16879;50.852;15.602;2023-09-07T04:39:46;3.95;;;3.10;;
30048;SDS011;16879;50.852;15.602;2023-09-07T04:42:13;4.35;;;3.22;;
30048;SDS011;16879;50.852;15.602;2023-09-07T04:44:38;5.10;;;2.63;;
30048;SDS011;16879;50.852;15.602;2023-09-07T04:47:04;4.95;;;3.00;;
30048;SDS011;16879;50.852;15.602;2023-09-07T04:49:30;5.55;;;3.38;;
30048;SDS011;16879;50.852;15.602;2023-09-07T04:51:57;3.38;;;3.08;;
30048;SDS011;16879;50.852;15.602;2023-09-07T04:54:22;3.42;;;2.97;;
30048;SDS011;16879;50.852;15.602;2023-09-07T04:56:48;5.53;;;3.00;;
30048;SDS011;16879;50.852;15.602;2023-09-07T04:59:14;4.20;;;2.58;;
30048;SDS011;16879;50.852;15.602;2023-09-07T05:01:40;3.30;;;3.00;;
30048;SDS011;16879;50.852;15.602;2023-09-07T05:04:06;3.55;;;3.22;;
30048;SDS011;16879;50.852;15.602;2023-09-07T05:06:32;7.63;;;4.60;;
30048;SDS011;16879;50.852;15.602;2023-09-07T05:09:02;4.38;;;3.97;;
30048;SDS011;16879;50.852;15.602;2023-09-07T05:11:28;6.18;;;5.57;;
30048;SDS011;16879;50.852;15.602;2023-09-07T05:13:54;7.60;;;5.40;;
30048;SDS011;16879;50.852;15.602;2023-09-07T05:16:20;6.22;;;4.43;;
30048;SDS011;16879;50.852;15.602;2023-09-07T05:18:46;5.13;;;4.57;;
30048;SDS011;16879;50.852;15.602;2023-09-07T05:21:13;4.88;;;4.45;;
30048;SDS011;16879;50.852;15.602;2023-09-07T05:23:40;6.93;;;5.38;;
30048;SDS011;16879;50.852;15.602;2023-09-07T05:26:07;4.90;;;4.40;;
30048;SDS011;16879;50.852;15.602;2023-09-07T05:28:33;5.55;;;4.68;;
30048;SDS011;16879;50.852;15.602;2023-09-07T05:30:59;5.25;;;4.72;;
30048;SDS011;16879;50.852;15.602;2023-09-07T05:33:25;5.28;;;4.75;;
30048;SDS011;16879;50.852;15.602;2023-09-07T05:35:50;6.18;;;5.60;;
30048;SDS011;16879;50.852;15.602;2023-09-07T05:38:16;7.97;;;5.90;;
30048;SDS011;16879;50.852;15.602;2023-09-07T05:40:43;6.75;;;5.75;;
30048;SDS011;16879;50.852;15.602;2023-09-07T05:43:10;9.63;;;7.63;;
30048;SDS011;16879;50.852;15.602;2023-09-07T05:45:37;8.25;;;5.90;;
30048;SDS011;16879;50.852;15.602;2023-09-07T05:48:04;7.38;;;6.68;;
30048;SDS011;16879;50.852;15.602;2023-09-07T05:50:35;6.43;;;5.82;;
30048;SDS011;16879;50.852;15.602;2023-09-07T05:53:02;7.47;;;5.78;;
30048;SDS011;16879;50.852;15.602;2023-09-07T05:55:28;5.57;;;4.80;;
30048;SDS011;16879;50.852;15.602;2023-09-07T05:57:54;8.55;;;6.05;;
30048;SDS011;16879;50.852;15.602;2023-09-07T06:00:20;7.82;;;6.07;;
30048;SDS011;16879;50.852;15.602;2023-09-07T06:02:46;7.70;;;5.78;;
30048;SDS011;16879;50.852;15.602;2023-09-07T06:05:13;10.38;;;6.22;;
30048;SDS011;16879;50.852;15.602;2023-09-07T06:07:39;6.07;;;5.47;;
30048;SDS011;16879;50.852;15.602;2023-09-07T06:10:05;6.47;;;5.10;;
30048;SDS011;16879;50.852;15.602;2023-09-07T06:12:32;8.63;;;6.10;;
30048;SDS011;16879;50.852;15.602;2023-09-07T06:15:01;8.60;;;4.72;;
30048;SDS011;16879;50.852;15.602;2023-09-07T06:17:28;7.70;;;5.95;;
30048;SDS011;16879;50.852;15.602;2023-09-07T06:19:54;9.80;;;4.45;;
30048;SDS011;16879;50.852;15.602;2023-09-07T06:22:21;5.47;;;4.40;;
30048;SDS011;16879;50.852;15.602;2023-09-07T06:24:47;8.30;;;5.43;;
30048;SDS011;16879;50.852;15.602;2023-09-07T06:27:13;8.27;;;5.22;;
30048;SDS011;16879;50.852;15.602;2023-09-07T06:29:38;7.55;;;4.95;;
30048;SDS011;16879;50.852;15.602;2023-09-07T06:32:04;8.82;;;5.05;;
30048;SDS011;16879;50.852;15.602;2023-09-07T06:34:30;9.55;;;5.25;;
30048;SDS011;16879;50.852;15.602;2023-09-07T06:36:56;8.02;;;4.63;;
30048;SDS011;16879;50.852;15.602;2023-09-07T06:39:22;5.88;;;4.43;;
30048;SDS011;16879;50.852;15.602;2023-09-07T06:41:48;5.55;;;4.15;;
30048;SDS011;16879;50.852;15.602;2023-09-07T06:44:14;12.27;;;4.82;;
30048;SDS011;16879;50.852;15.602;2023-09-07T06:46:40;6.57;;;4.28;;
30048;SDS011;16879;50.852;15.602;2023-09-07T06:49:06;7.88;;;4.28;;
30048;SDS011;16879;50.852;15.602;2023-09-07T06:51:33;3.42;;;3.13;;
30048;SDS011;16879;50.852;15.602;2023-09-07T06:53:59;4.00;;;3.55;;
30048;SDS011;16879;50.852;15.602;2023-09-07T06:56:25;4.32;;;3.40;;
30048;SDS011;16879;50.852;15.602;2023-09-07T06:58:51;8.38;;;3.88;;
30048;SDS011;16879;50.852;15.602;2023-09-07T07:01:18;5.22;;;3.70;;
30048;SDS011;16879;50.852;15.602;2023-09-07T07:03:44;6.75;;;4.57;;
30048;SDS011;16879;50.852;15.602;2023-09-07T07:06:10;7.43;;;3.70;;
30048;SDS011;16879;50.852;15.602;2023-09-07T07:08:36;4.97;;;3.38;;
30048;SDS011;16879;50.852;15.602;2023-09-07T07:11:02;8.00;;;3.75;;
30048;SDS011;16879;50.852;15.602;2023-09-07T07:13:28;9.25;;;3.75;;
30048;SDS011;16879;50.852;15.602;2023-09-07T07:15:54;5.95;;;3.75;;
30048;SDS011;16879;50.852;15.602;2023-09-07T07:18:20;5.05;;;3.28;;
30048;SDS011;16879;50.852;15.602;2023-09-07T07:20:47;5.15;;;3.25;;
30048;SDS011;16879;50.852;15.602;2023-09-07T07:23:14;6.65;;;4.18;;
30048;SDS011;16879;50.852;15.602;2023-09-07T07:25:39;3.72;;;3.20;;
30048;SDS011;16879;50.852;15.602;2023-09-07T07:28:05;5.65;;;3.88;;
30048;SDS011;16879;50.852;15.602;2023-09-07T07:30:32;4.55;;;3.78;;
30048;SDS011;16879;50.852;15.602;2023-09-07T07:32:59;5.25;;;3.83;;
30048;SDS011;16879;50.852;15.602;2023-09-07T07:35:25;5.85;;;3.63;;
30048;SDS011;16879;50.852;15.602;2023-09-07T07:37:50;5.28;;;3.90;;
30048;SDS011;16879;50.852;15.602;2023-09-07T07:40:17;4.85;;;3.72;;
30048;SDS011;16879;50.852;15.602;2023-09-07T07:42:46;4.15;;;3.40;;
30048;SDS011;16879;50.852;15.602;2023-09-07T07:45:12;5.20;;;3.60;;
30048;SDS011;16879;50.852;15.602;2023-09-07T07:47:42;7.93;;;3.58;;
30048;SDS011;16879;50.852;15.602;2023-09-07T07:50:08;3.72;;;3.42;;
30048;SDS011;16879;50.852;15.602;2023-09-07T07:52:34;4.40;;;3.70;;
30048;SDS011;16879;50.852;15.602;2023-09-07T07:55:00;4.00;;;3.40;;
30048;SDS011;16879;50.852;15.602;2023-09-07T07:57:27;4.18;;;3.78;;
30048;SDS011;16879;50.852;15.602;2023-09-07T07:59:53;4.47;;;4.05;;
30048;SDS011;16879;50.852;15.602;2023-09-07T08:02:20;5.30;;;4.25;;
30048;SDS011;16879;50.852;15.602;2023-09-07T08:04:46;3.90;;;3.25;;
30048;SDS011;16879;50.852;15.602;2023-09-07T08:07:12;5.50;;;4.32;;
30048;SDS011;16879;50.852;15.602;2023-09-07T08:09:38;6.70;;;3.72;;
30048;SDS011;16879;50.852;15.602;2023-09-07T08:12:04;9.38;;;3.90;;
30048;SDS011;16879;50.852;15.602;2023-09-07T08:14:31;6.63;;;4.70;;
30048;SDS011;16879;50.852;15.602;2023-09-07T08:16:57;6.70;;;4.85;;
30048;SDS011;16879;50.852;15.602;2023-09-07T08:19:24;5.88;;;3.95;;
30048;SDS011;16879;50.852;15.602;2023-09-07T08:21:52;5.20;;;3.80;;
30048;SDS011;16879;50.852;15.602;2023-09-07T08:24:18;7.25;;;4.32;;
30048;SDS011;16879;50.852;15.602;2023-09-07T08:26:44;4.53;;;4.13;;
30048;SDS011;16879;50.852;15.602;2023-09-07T08:29:10;11.98;;;4.45;;
30048;SDS011;16879;50.852;15.602;2023-09-07T08:31:40;6.55;;;3.53;;
30048;SDS011;16879;50.852;15.602;2023-09-07T08:34:06;4.97;;;3.67;;
30048;SDS011;16879;50.852;15.602;2023-09-07T08:36:36;6.03;;;3.88;;
30048;SDS011;16879;50.852;15.602;2023-09-07T08:39:03;4.07;;;2.90;;
30048;SDS011;16879;50.852;15.602;2023-09-07T08:41:39;4.03;;;3.63;;
30048;SDS011;16879;50.852;15.602;2023-09-07T08:44:27;5.35;;;3.55;;
30048;SDS011;16879;50.852;15.602;2023-09-07T08:46:55;6.10;;;3.53;;
30048;SDS011;16879;50.852;15.602;2023-09-07T08:49:21;3.78;;;3.42;;
30048;SDS011;16879;50.852;15.602;2023-09-07T08:51:50;4.20;;;3.58;;
30048;SDS011;16879;50.852;15.602;2023-09-07T08:54:16;3.60;;;3.30;;
30048;SDS011;16879;50.852;15.602;2023-09-07T08:56:44;3.55;;;3.00;;
30048;SDS011;16879;50.852;15.602;2023-09-07T08:59:10;5.85;;;4.40;;
30048;SDS011;16879;50.852;15.602;2023-09-07T09:01:36;4.32;;;3.83;;
30048;SDS011;16879;50.852;15.602;2023-09-07T09:04:02;5.20;;;4.32;;
30048;SDS011;16879;50.852;15.602;2023-09-07T09:06:28;7.68;;;4.30;;
30048;SDS011;16879;50.852;15.602;2023-09-07T09:08:55;8.35;;;4.85;;
30048;SDS011;16879;50.852;15.602;2023-09-07T09:11:22;4.75;;;4.25;;
30048;SDS011;16879;50.852;15.602;2023-09-07T09:13:50;4.20;;;3.75;;
30048;SDS011;16879;50.852;15.602;2023-09-07T09:16:18;5.25;;;4.75;;
30048;SDS011;16879;50.852;15.602;2023-09-07T09:18:48;6.35;;;4.18;;
30048;SDS011;16879;50.852;15.602;2023-09-07T09:21:21;5.47;;;4.30;;
30048;SDS011;16879;50.852;15.602;2023-09-07T09:23:50;5.95;;;4.00;;
30048;SDS011;16879;50.852;15.602;2023-09-07T09:26:17;6.15;;;4.43;;
30048;SDS011;16879;50.852;15.602;2023-09-07T09:28:44;5.30;;;4.18;;
30048;SDS011;16879;50.852;15.602;2023-09-07T09:31:10;4.90;;;4.40;;
30048;SDS011;16879;50.852;15.602;2023-09-07T09:33:40;5.40;;;4.43;;
30048;SDS011;16879;50.852;15.602;2023-09-07T09:36:07;6.90;;;4.32;;
30048;SDS011;16879;50.852;15.602;2023-09-07T09:38:34;5.05;;;4.15;;
30048;SDS011;16879;50.852;15.602;2023-09-07T09:41:01;5.85;;;4.07;;
30048;SDS011;16879;50.852;15.602;2023-09-07T09:43:30;4.40;;;3.53;;
30048;SDS011;16879;50.852;15.602;2023-09-07T09:45:56;4.68;;;3.67;;
30048;SDS011;16879;50.852;15.602;2023-09-07T09:48:25;4.53;;;3.78;;
30048;SDS011;16879;50.852;15.602;2023-09-07T09:50:53;4.45;;;3.67;;
30048;SDS011;16879;50.852;15.602;2023-09-07T09:53:19;5.60;;;3.75;;
30048;SDS011;16879;50.852;15.602;2023-09-07T09:55:49;4.40;;;3.50;;
30048;SDS011;16879;50.852;15.602;2023-09-07T09:58:19;5.70;;;3.75;;
30048;SDS011;16879;50.852;15.602;2023-09-07T10:00:45;5.03;;;3.80;;
30048;SDS011;16879;50.852;15.602;2023-09-07T10:05:46;3.72;;;2.92;;
30048;SDS011;16879;50.852;15.602;2023-09-07T10:08:12;4.60;;;3.53;;
30048;SDS011;16879;50.852;15.602;2023-09-07T10:10:40;5.22;;;3.17;;
30048;SDS011;16879;50.852;15.602;2023-09-07T10:13:07;5.93;;;3.65;;
30048;SDS011;16879;50.852;15.602;2023-09-07T10:15:33;5.57;;;3.33;;
30048;SDS011;16879;50.852;15.602;2023-09-07T10:18:10;6.05;;;3.65;;
30048;SDS011;16879;50.852;15.602;2023-09-07T10:23:16;6.38;;;3.97;;
30048;SDS011;16879;50.852;15.602;2023-09-07T10:25:42;3.88;;;3.40;;
30048;SDS011;16879;50.852;15.602;2023-09-07T10:28:17;3.33;;;2.78;;
30048;SDS011;16879;50.852;15.602;2023-09-07T10:30:44;7.32;;;3.60;;
30048;SDS011;16879;50.852;15.602;2023-09-07T10:33:20;4.20;;;3.08;;
30048;SDS011;16879;50.852;15.602;2023-09-07T10:35:46;3.88;;;2.90;;
30048;SDS011;16879;50.852;15.602;2023-09-07T10:38:15;4.97;;;3.83;;
30048;SDS011;16879;50.852;15.602;2023-09-07T10:40:43;3.35;;;3.03;;
30048;SDS011;16879;50.852;15.602;2023-09-07T10:43:10;3.47;;;3.08;;
30048;SDS011;16879;50.852;15.602;2023-09-07T10:45:36;5.18;;;3.80;;
30048;SDS011;16879;50.852;15.602;2023-09-07T10:48:02;5.75;;;3.33;;
30048;SDS011;16879;50.852;15.602;2023-09-07T10:50:29;3.20;;;2.90;;
30048;SDS011;16879;50.852;15.602;2023-09-07T10:52:55;5.40;;;3.42;;
30048;SDS011;16879;50.852;15.602;2023-09-07T10:55:21;5.07;;;3.25;;
30048;SDS011;16879;50.852;15.602;2023-09-07T10:57:47;3.60;;;3.28;;
30048;SDS011;16879;50.852;15.602;2023-09-07T11:00:13;4.25;;;3.20;;
30048;SDS011;16879;50.852;15.602;2023-09-07T11:02:41;3.92;;;3.45;;
30048;SDS011;16879;50.852;15.602;2023-09-07T11:05:08;4.65;;;3.20;;
30048;SDS011;16879;50.852;15.602;2023-09-07T11:07:35;3.40;;;3.10;;
30048;SDS011;16879;50.852;15.602;2023-09-07T11:10:04;3.58;;;3.08;;
30048;SDS011;16879;50.852;15.602;2023-09-07T11:12:36;3.67;;;2.88;;
30048;SDS011;16879;50.852;15.602;2023-09-07T11:15:03;3.90;;;3.58;;
30048;SDS011;16879;50.852;15.602;2023-09-07T11:17:29;5.35;;;3.40;;
30048;SDS011;16879;50.852;15.602;2023-09-07T11:19:55;5.20;;;3.40;;
30048;SDS011;16879;50.852;15.602;2023-09-07T11:22:21;3.58;;;3.25;;
30048;SDS011;16879;50.852;15.602;2023-09-07T11:24:48;3.88;;;3.17;;
30048;SDS011;16879;50.852;15.602;2023-09-07T11:27:16;4.20;;;3.65;;
30048;SDS011;16879;50.852;15.602;2023-09-07T11:29:50;5.72;;;4.40;;
30048;SDS011;16879;50.852;15.602;2023-09-07T11:32:17;6.03;;;3.55;;
30048;SDS011;16879;50.852;15.602;2023-09-07T11:34:50;6.20;;;4.30;;
30048;SDS011;16879;50.852;15.602;2023-09-07T11:37:17;4.75;;;4.13;;
30048;SDS011;16879;50.852;15.602;2023-09-07T11:39:48;5.32;;;3.92;;
30048;SDS011;16879;50.852;15.602;2023-09-07T11:42:14;5.03;;;4.00;;
30048;SDS011;16879;50.852;15.602;2023-09-07T11:44:40;6.80;;;4.47;;
30048;SDS011;16879;50.852;15.602;2023-09-07T11:47:06;5.72;;;4.50;;
30048;SDS011;16879;50.852;15.602;2023-09-07T11:49:32;7.07;;;4.07;;
30048;SDS011;16879;50.852;15.602;2023-09-07T11:51:58;3.92;;;3.55;;
30048;SDS011;16879;50.852;15.602;2023-09-07T11:54:24;4.38;;;3.97;;
30048;SDS011;16879;50.852;15.602;2023-09-07T11:56:50;9.60;;;4.57;;
30048;SDS011;16879;50.852;15.602;2023-09-07T11:59:16;7.57;;;4.43;;
30048;SDS011;16879;50.852;15.602;2023-09-07T12:01:42;6.07;;;4.22;;
30048;SDS011;16879;50.852;15.602;2023-09-07T12:04:09;5.07;;;4.28;;
30048;SDS011;16879;50.852;15.602;2023-09-07T12:06:35;6.45;;;4.28;;
30048;SDS011;16879;50.852;15.602;2023-09-07T12:09:02;5.40;;;3.88;;
30048;SDS011;16879;50.852;15.602;2023-09-07T12:11:30;7.97;;;4.10;;
30048;SDS011;16879;50.852;15.602;2023-09-07T12:13:56;5.53;;;4.45;;
30048;SDS011;16879;50.852;15.602;2023-09-07T12:16:22;4.47;;;4.07;;
30048;SDS011;16879;50.852;15.602;2023-09-07T12:18:48;10.48;;;4.60;;
30048;SDS011;16879;50.852;15.602;2023-09-07T12:21:14;5.38;;;4.80;;
30048;SDS011;16879;50.852;15.602;2023-09-07T12:23:40;5.82;;;4.20;;
30048;SDS011;16879;50.852;15.602;2023-09-07T12:26:06;7.18;;;4.07;;
30048;SDS011;16879;50.852;15.602;2023-09-07T12:28:33;5.95;;;4.35;;
30048;SDS011;16879;50.852;15.602;2023-09-07T12:30:59;5.38;;;3.83;;
30048;SDS011;16879;50.852;15.602;2023-09-07T12:33:25;5.82;;;4.45;;
30048;SDS011;16879;50.852;15.602;2023-09-07T12:35:54;7.60;;;4.28;;
30048;SDS011;16879;50.852;15.602;2023-09-07T12:38:20;5.93;;;4.35;;
30048;SDS011;16879;50.852;15.602;2023-09-07T12:40:52;5.03;;;3.70;;
30048;SDS011;16879;50.852;15.602;2023-09-07T12:43:18;5.03;;;3.90;;
30048;SDS011;16879;50.852;15.602;2023-09-07T12:45:45;5.68;;;4.40;;
30048;SDS011;16879;50.852;15.602;2023-09-07T12:48:11;5.22;;;3.72;;
30048;SDS011;16879;50.852;15.602;2023-09-07T12:50:37;5.97;;;3.95;;
30048;SDS011;16879;50.852;15.602;2023-09-07T12:53:05;7.80;;;4.40;;
30048;SDS011;16879;50.852;15.602;2023-09-07T12:55:31;5.03;;;3.70;;
30048;SDS011;16879;50.852;15.602;2023-09-07T12:57:58;6.38;;;4.20;;
30048;SDS011;16879;50.852;15.602;2023-09-07T13:00:25;5.63;;;5.03;;
30048;SDS011;16879;50.852;15.602;2023-09-07T13:02:51;4.68;;;4.03;;
30048;SDS011;16879;50.852;15.602;2023-09-07T13:05:18;5.82;;;4.50;;
30048;SDS011;16879;50.852;15.602;2023-09-07T13:07:44;4.70;;;3.97;;
30048;SDS011;16879;50.852;15.602;2023-09-07T13:10:10;5.13;;;4.63;;
30048;SDS011;16879;50.852;15.602;2023-09-07T13:12:36;5.80;;;3.95;;
30048;SDS011;16879;50.852;15.602;2023-09-07T13:15:03;4.53;;;4.13;;
30048;SDS011;16879;50.852;15.602;2023-09-07T13:17:30;5.43;;;3.90;;
30048;SDS011;16879;50.852;15.602;2023-09-07T13:19:56;5.82;;;4.15;;
30048;SDS011;16879;50.852;15.602;2023-09-07T13:22:22;5.07;;;4.20;;
30048;SDS011;16879;50.852;15.602;2023-09-07T13:24:48;4.93;;;3.55;;
30048;SDS011;16879;50.852;15.602;2023-09-07T13:27:14;8.85;;;4.75;;
30048;SDS011;16879;50.852;15.602;2023-09-07T13:29:40;8.25;;;5.00;;
30048;SDS011;16879;50.852;15.602;2023-09-07T13:32:06;4.93;;;4.43;;
30048;SDS011;16879;50.852;15.602;2023-09-07T13:34:32;6.88;;;3.83;;
30048;SDS011;16879;50.852;15.602;2023-09-07T13:36:58;5.45;;;4.03;;
30048;SDS011;16879;50.852;15.602;2023-09-07T13:39:24;6.15;;;4.72;;
30048;SDS011;16879;50.852;15.602;2023-09-07T13:41:50;4.00;;;3.65;;
30048;SDS011;16879;50.852;15.602;2023-09-07T13:44:16;7.07;;;4.85;;
30048;SDS011;16879;50.852;15.602;2023-09-07T13:46:42;4.38;;;3.97;;
30048;SDS011;16879;50.852;15.602;2023-09-07T13:49:09;5.30;;;4.75;;
30048;SDS011;16879;50.852;15.602;2023-09-07T13:51:36;11.60;;;5.22;;
30048;SDS011;16879;50.852;15.602;2023-09-07T13:54:05;17.92;;;5.78;;
30048;SDS011;16879;50.852;15.602;2023-09-07T13:56:32;10.18;;;4.60;;
30048;SDS011;16879;50.852;15.602;2023-09-07T13:58:58;5.53;;;4.93;;
30048;SDS011;16879;50.852;15.602;2023-09-07T14:01:24;8.68;;;4.72;;
30048;SDS011;16879;50.852;15.602;2023-09-07T14:03:50;11.05;;;5.07;;
30048;SDS011;16879;50.852;15.602;2023-09-07T14:06:17;6.90;;;4.40;;
30048;SDS011;16879;50.852;15.602;2023-09-07T14:08:45;5.95;;;4.32;;
30048;SDS011;16879;50.852;15.602;2023-09-07T14:11:11;4.47;;;4.07;;
30048;SDS011;16879;50.852;15.602;2023-09-07T14:13:37;4.45;;;4.05;;
30048;SDS011;16879;50.852;15.602;2023-09-07T14:16:03;7.00;;;4.03;;
30048;SDS011;16879;50.852;15.602;2023-09-07T14:18:30;5.20;;;4.60;;
30048;SDS011;16879;50.852;15.602;2023-09-07T14:20:55;5.38;;;4.22;;
30048;SDS011;16879;50.852;15.602;2023-09-07T14:23:24;10.02;;;5.47;;
30048;SDS011;16879;50.852;15.602;2023-09-07T14:25:54;6.15;;;4.70;;
30048;SDS011;16879;50.852;15.602;2023-09-07T14:28:19;5.65;;;4.57;;
30048;SDS011;16879;50.852;15.602;2023-09-07T14:30:46;8.40;;;4.45;;
30048;SDS011;16879;50.852;15.602;2023-09-07T14:33:12;9.15;;;5.28;;
30048;SDS011;16879;50.852;15.602;2023-09-07T14:35:38;5.35;;;4.65;;